sensor_id;sensor_type;location;lat;lon;timestamp;pressure;altitude;pressure_sealevel;temperature;humidity
81937;BME280;71432;56.558;9.036;2023-11-18T00:01:46;102440.91;;;21.59;47.25
81937;BME280;71432;56.558;9.036;2023-11-18T00:04:11;102450.81;;;21.56;47.02
81937;BME280;71432;56.558;9.036;2023-11-18T00:06:44;102449.75;;;21.58;46.80
81937;BME280;71432;56.558;9.036;2023-11-18T00:09:13;102443.16;;;21.53;46.97
81937;BME280;71432;56.558;9.036;2023-11-18T00:11:46;102446.16;;;21.59;46.81
81937;BME280;71432;56.558;9.036;2023-11-18T00:14:29;102447.44;;;21.54;46.89
81937;BME280;71432;56.558;9.036;2023-11-18T00:16:55;102449.97;;;21.55;46.84
81937;BME280;71432;56.558;9.036;2023-11-18T00:19:20;102443.69;;;21.45;46.91
81937;BME280;71432;56.558;9.036;2023-11-18T00:21:45;102446.22;;;21.47;46.87
81937;BME280;71432;56.558;9.036;2023-11-18T00:24:11;102441.03;;;21.45;47.06
81937;BME280;71432;56.558;9.036;2023-11-18T00:26:36;102441.56;;;21.50;46.95
81937;BME280;71432;56.558;9.036;2023-11-18T00:29:01;102444.81;;;21.54;46.42
81937;BME280;71432;56.558;9.036;2023-11-18T00:31:27;102440.84;;;21.48;46.72
81937;BME280;71432;56.558;9.036;2023-11-18T00:33:52;102437.56;;;21.45;46.96
81937;BME280;71432;56.558;9.036;2023-11-18T00:36:18;102440.31;;;21.43;47.13
81937;BME280;71432;56.558;9.036;2023-11-18T00:38:43;102435.06;;;21.43;46.87
81937;BME280;71432;56.558;9.036;2023-11-18T00:41:08;102433.59;;;21.39;46.88
81937;BME280;71432;56.558;9.036;2023-11-18T00:43:34;102435.25;;;21.40;47.13
81937;BME280;71432;56.558;9.036;2023-11-18T00:46:00;102437.88;;;21.40;47.03
81937;BME280;71432;56.558;9.036;2023-11-18T00:48:26;102432.63;;;21.40;47.18
81937;BME280;71432;56.558;9.036;2023-11-18T00:50:51;102424.00;;;21.38;47.26
81937;BME280;71432;56.558;9.036;2023-11-18T00:53:17;102425.16;;;21.34;47.21
81937;BME280;71432;56.558;9.036;2023-11-18T00:55:42;102419.91;;;21.34;47.27
81937;BME280;71432;56.558;9.036;2023-11-18T00:58:08;102427.06;;;21.32;47.25
81937;BME280;71432;56.558;9.036;2023-11-18T01:00:33;102432.22;;;21.34;47.04
81937;BME280;71432;56.558;9.036;2023-11-18T01:02:58;102414.97;;;21.29;47.20
81937;BME280;71432;56.558;9.036;2023-11-18T01:05:24;102425.56;;;21.41;46.84
81937;BME280;71432;56.558;9.036;2023-11-18T01:07:49;102418.31;;;21.32;46.72
81937;BME280;71432;56.558;9.036;2023-11-18T01:10:14;102423.47;;;21.33;46.85
81937;BME280;71432;56.558;9.036;2023-11-18T01:12:40;102413.78;;;21.34;46.83
81937;BME280;71432;56.558;9.036;2023-11-18T01:15:07;102421.69;;;21.34;46.78
81937;BME280;71432;56.558;9.036;2023-11-18T01:17:35;102419.16;;;21.32;46.55
81937;BME280;71432;56.558;9.036;2023-11-18T01:20:00;102417.78;;;21.39;46.45
81937;BME280;71432;56.558;9.036;2023-11-18T01:22:31;102403.03;;;21.37;46.35
81937;BME280;71432;56.558;9.036;2023-11-18T01:24:56;102409.97;;;21.38;45.96
81937;BME280;71432;56.558;9.036;2023-11-18T01:27:23;102399.53;;;21.36;46.21
81937;BME280;71432;56.558;9.036;2023-11-18T01:29:48;102399.03;;;21.31;46.30
81937;BME280;71432;56.558;9.036;2023-11-18T01:32:13;102386.69;;;21.32;46.16
81937;BME280;71432;56.558;9.036;2023-11-18T01:34:39;102395.53;;;21.30;46.41
81937;BME280;71432;56.558;9.036;2023-11-18T01:37:08;102381.56;;;21.30;46.25
81937;BME280;71432;56.558;9.036;2023-11-18T01:39:34;102390.09;;;21.34;45.93
81937;BME280;71432;56.558;9.036;2023-11-18T01:42:01;102388.94;;;21.25;46.17
81937;BME280;71432;56.558;9.036;2023-11-18T01:44:28;102392.28;;;21.27;46.22
81937;BME280;71432;56.558;9.036;2023-11-18T01:46:57;102391.25;;;21.29;46.01
81937;BME280;71432;56.558;9.036;2023-11-18T01:49:23;102400.94;;;21.29;45.90
81937;BME280;71432;56.558;9.036;2023-11-18T01:51:50;102394.84;;;21.28;45.96
81937;BME280;71432;56.558;9.036;2023-11-18T01:54:16;102384.53;;;21.25;46.21
81937;BME280;71432;56.558;9.036;2023-11-18T01:56:46;102400.00;;;21.30;46.11
81937;BME280;71432;56.558;9.036;2023-11-18T01:59:12;102387.88;;;21.27;46.13
81937;BME280;71432;56.558;9.036;2023-11-18T02:01:49;102401.03;;;21.27;46.23
81937;BME280;71432;56.558;9.036;2023-11-18T02:04:16;102401.66;;;21.31;46.04
81937;BME280;71432;56.558;9.036;2023-11-18T02:06:45;102398.50;;;21.26;46.21
81937;BME280;71432;56.558;9.036;2023-11-18T02:09:12;102396.94;;;21.23;46.19
81937;BME280;71432;56.558;9.036;2023-11-18T02:11:43;102410.75;;;21.27;46.50
81937;BME280;71432;56.558;9.036;2023-11-18T02:14:14;102406.53;;;21.24;46.15
81937;BME280;71432;56.558;9.036;2023-11-18T02:16:42;102404.63;;;21.26;46.42
81937;BME280;71432;56.558;9.036;2023-11-18T02:19:19;102404.94;;;21.22;46.65
81937;BME280;71432;56.558;9.036;2023-11-18T02:21:45;102403.06;;;21.24;46.42
81937;BME280;71432;56.558;9.036;2023-11-18T02:24:10;102394.22;;;21.25;46.38
81937;BME280;71432;56.558;9.036;2023-11-18T02:26:36;102401.13;;;21.26;46.39
81937;BME280;71432;56.558;9.036;2023-11-18T02:29:01;102398.22;;;21.18;46.72
81937;BME280;71432;56.558;9.036;2023-11-18T02:31:34;102387.34;;;21.22;46.52
81937;BME280;71432;56.558;9.036;2023-11-18T02:34:07;102390.72;;;21.24;46.49
81937;BME280;71432;56.558;9.036;2023-11-18T02:36:44;102392.94;;;21.18;46.35
81937;BME280;71432;56.558;9.036;2023-11-18T02:39:24;102392.75;;;21.21;46.05
81937;BME280;71432;56.558;9.036;2023-11-18T02:41:54;102394.41;;;21.22;46.24
81937;BME280;71432;56.558;9.036;2023-11-18T02:44:22;102396.66;;;21.15;46.23
81937;BME280;71432;56.558;9.036;2023-11-18T02:46:48;102403.63;;;21.16;46.35
81937;BME280;71432;56.558;9.036;2023-11-18T02:49:14;102404.56;;;21.15;46.25
81937;BME280;71432;56.558;9.036;2023-11-18T02:51:39;102392.22;;;21.16;46.16
81937;BME280;71432;56.558;9.036;2023-11-18T02:54:08;102404.00;;;21.23;46.17
81937;BME280;71432;56.558;9.036;2023-11-18T02:56:36;102405.78;;;21.22;46.01
81937;BME280;71432;56.558;9.036;2023-11-18T02:59:01;102404.44;;;21.17;46.20
81937;BME280;71432;56.558;9.036;2023-11-18T03:01:30;102404.44;;;21.17;46.21
81937;BME280;71432;56.558;9.036;2023-11-18T03:03:55;102397.78;;;21.24;45.96
81937;BME280;71432;56.558;9.036;2023-11-18T03:06:21;102404.44;;;21.17;46.08
81937;BME280;71432;56.558;9.036;2023-11-18T03:08:46;102402.63;;;21.17;46.00
81937;BME280;71432;56.558;9.036;2023-11-18T03:11:12;102408.09;;;21.27;45.89
81937;BME280;71432;56.558;9.036;2023-11-18T03:13:37;102402.00;;;21.26;45.87
81937;BME280;71432;56.558;9.036;2023-11-18T03:16:06;102396.09;;;21.23;45.94
81937;BME280;71432;56.558;9.036;2023-11-18T03:18:35;102392.63;;;21.22;46.08
81937;BME280;71432;56.558;9.036;2023-11-18T03:21:05;102396.94;;;21.23;45.76
81937;BME280;71432;56.558;9.036;2023-11-18T03:23:32;102398.84;;;21.21;45.88
81937;BME280;71432;56.558;9.036;2023-11-18T03:25:57;102394.41;;;21.22;45.87
81937;BME280;71432;56.558;9.036;2023-11-18T03:28:23;102390.94;;;21.21;45.91
81937;BME280;71432;56.558;9.036;2023-11-18T03:30:48;102388.63;;;21.17;46.04
81937;BME280;71432;56.558;9.036;2023-11-18T03:33:14;102388.63;;;21.17;46.09
81937;BME280;71432;56.558;9.036;2023-11-18T03:35:39;102391.47;;;21.14;46.16
81937;BME280;71432;56.558;9.036;2023-11-18T03:38:04;102389.03;;;21.11;46.32
81937;BME280;71432;56.558;9.036;2023-11-18T03:40:30;102385.19;;;21.16;46.31
81937;BME280;71432;56.558;9.036;2023-11-18T03:42:55;102387.50;;;21.21;46.02
81937;BME280;71432;56.558;9.036;2023-11-18T03:45:21;102374.84;;;21.13;46.29
81937;BME280;71432;56.558;9.036;2023-11-18T03:47:48;102356.09;;;21.05;46.72
81937;BME280;71432;56.558;9.036;2023-11-18T03:50:15;102372.81;;;21.17;46.18
81937;BME280;71432;56.558;9.036;2023-11-18T03:52:41;102379.91;;;21.16;46.15
81937;BME280;71432;56.558;9.036;2023-11-18T03:55:07;102385.38;;;21.13;46.24
81937;BME280;71432;56.558;9.036;2023-11-18T03:57:33;102391.25;;;21.04;46.90
81937;BME280;71432;56.558;9.036;2023-11-18T03:59:59;102388.00;;;21.13;46.02
81937;BME280;71432;56.558;9.036;2023-11-18T04:02:24;102388.63;;;21.17;46.16
81937;BME280;71432;56.558;9.036;2023-11-18T04:04:50;102389.47;;;21.17;46.24
81937;BME280;71432;56.558;9.036;2023-11-18T04:07:15;102393.38;;;21.12;46.11
81937;BME280;71432;56.558;9.036;2023-11-18T04:09:40;102393.56;;;21.09;45.74
81937;BME280;71432;56.558;9.036;2023-11-18T04:12:09;102400.34;;;21.13;46.17
81937;BME280;71432;56.558;9.036;2023-11-18T04:14:36;102379.16;;;21.02;46.12
81937;BME280;71432;56.558;9.036;2023-11-18T04:17:01;102402.44;;;21.20;45.83
81937;BME280;71432;56.558;9.036;2023-11-18T04:19:27;102397.50;;;21.16;45.86
81937;BME280;71432;56.558;9.036;2023-11-18T04:21:52;102398.44;;;21.15;46.29
81937;BME280;71432;56.558;9.036;2023-11-18T04:24:17;102400.22;;;21.14;46.17
81937;BME280;71432;56.558;9.036;2023-11-18T04:26:43;102390.31;;;21.18;45.89
81937;BME280;71432;56.558;9.036;2023-11-18T04:29:08;102391.38;;;21.15;45.99
81937;BME280;71432;56.558;9.036;2023-11-18T04:31:33;102398.13;;;21.19;45.93
81937;BME280;71432;56.558;9.036;2023-11-18T04:34:02;102392.84;;;21.19;46.01
81937;BME280;71432;56.558;9.036;2023-11-18T04:36:29;102388.75;;;21.15;46.03
81937;BME280;71432;56.558;9.036;2023-11-18T04:38:56;102389.69;;;21.14;46.06
81937;BME280;71432;56.558;9.036;2023-11-18T04:41:22;102390.00;;;21.10;46.37
81937;BME280;71432;56.558;9.036;2023-11-18T04:43:48;102401.06;;;21.15;46.01
81937;BME280;71432;56.558;9.036;2023-11-18T04:46:14;102396.94;;;21.11;46.21
81937;BME280;71432;56.558;9.036;2023-11-18T04:48:39;102393.19;;;21.15;45.89
81937;BME280;71432;56.558;9.036;2023-11-18T04:51:04;102394.88;;;21.16;45.99
81937;BME280;71432;56.558;9.036;2023-11-18T04:53:31;102389.16;;;21.09;45.85
81937;BME280;71432;56.558;9.036;2023-11-18T04:55:57;102390.84;;;21.10;46.05
81937;BME280;71432;56.558;9.036;2023-11-18T04:58:23;102390.09;;;21.08;46.08
81937;BME280;71432;56.558;9.036;2023-11-18T05:00:49;102381.16;;;21.11;45.92
81937;BME280;71432;56.558;9.036;2023-11-18T05:03:16;102385.56;;;21.10;46.20
81937;BME280;71432;56.558;9.036;2023-11-18T05:05:41;102383.59;;;21.14;46.01
81937;BME280;71432;56.558;9.036;2023-11-18T05:08:08;102368.94;;;21.10;46.19
81937;BME280;71432;56.558;9.036;2023-11-18T05:10:49;102363.13;;;21.05;46.03
81937;BME280;71432;56.558;9.036;2023-11-18T05:13:15;102368.06;;;21.09;46.12
81937;BME280;71432;56.558;9.036;2023-11-18T05:15:45;102365.06;;;21.03;45.98
81937;BME280;71432;56.558;9.036;2023-11-18T05:18:14;102364.94;;;21.04;46.17
81937;BME280;71432;56.558;9.036;2023-11-18T05:20:43;102361.25;;;21.07;46.00
81937;BME280;71432;56.558;9.036;2023-11-18T05:23:09;102360.59;;;21.03;46.12
81937;BME280;71432;56.558;9.036;2023-11-18T05:25:39;102357.16;;;21.03;46.11
81937;BME280;71432;56.558;9.036;2023-11-18T05:28:05;102349.44;;;21.00;45.96
81937;BME280;71432;56.558;9.036;2023-11-18T05:30:34;102353.88;;;21.12;45.77
81937;BME280;71432;56.558;9.036;2023-11-18T05:33:02;102342.91;;;21.05;45.93
81937;BME280;71432;56.558;9.036;2023-11-18T05:35:29;102331.84;;;21.13;45.65
81937;BME280;71432;56.558;9.036;2023-11-18T05:37:55;102345.44;;;21.07;45.87
81937;BME280;71432;56.558;9.036;2023-11-18T05:40:20;102348.09;;;21.07;45.98
81937;BME280;71432;56.558;9.036;2023-11-18T05:42:46;102347.75;;;21.11;45.80
81937;BME280;71432;56.558;9.036;2023-11-18T05:45:13;102351.34;;;21.10;45.61
81937;BME280;71432;56.558;9.036;2023-11-18T05:47:53;102343.16;;;21.02;45.96
81937;BME280;71432;56.558;9.036;2023-11-18T05:50:19;102343.75;;;21.06;45.98
81937;BME280;71432;56.558;9.036;2023-11-18T05:52:44;102349.97;;;21.05;45.80
81937;BME280;71432;56.558;9.036;2023-11-18T05:55:09;102347.84;;;21.10;45.93
81937;BME280;71432;56.558;9.036;2023-11-18T05:57:35;102351.44;;;21.09;45.57
81937;BME280;71432;56.558;9.036;2023-11-18T06:00:01;102355.66;;;21.11;45.92
81937;BME280;71432;56.558;9.036;2023-11-18T06:02:26;102358.50;;;21.08;45.74
81937;BME280;71432;56.558;9.036;2023-11-18T06:04:52;102355.13;;;21.06;45.89
81937;BME280;71432;56.558;9.036;2023-11-18T06:07:17;102364.09;;;21.04;45.81
81937;BME280;71432;56.558;9.036;2023-11-18T06:09:44;102364.31;;;21.01;46.02
81937;BME280;71432;56.558;9.036;2023-11-18T06:12:10;102363.13;;;21.05;45.73
81937;BME280;71432;56.558;9.036;2023-11-18T06:14:39;102367.03;;;20.99;45.93
81937;BME280;71432;56.558;9.036;2023-11-18T06:17:04;102368.31;;;21.06;45.68
81937;BME280;71432;56.558;9.036;2023-11-18T06:19:32;102368.72;;;21.00;46.00
81937;BME280;71432;56.558;9.036;2023-11-18T06:21:58;102357.88;;;21.05;45.77
81937;BME280;71432;56.558;9.036;2023-11-18T06:24:23;102361.56;;;21.02;45.99
81937;BME280;71432;56.558;9.036;2023-11-18T06:26:48;102360.50;;;21.05;46.14
81937;BME280;71432;56.558;9.036;2023-11-18T06:29:14;102349.34;;;21.01;46.01
81937;BME280;71432;56.558;9.036;2023-11-18T06:31:40;102349.59;;;20.98;45.99
81937;BME280;71432;56.558;9.036;2023-11-18T06:34:06;102348.28;;;21.04;45.80
81937;BME280;71432;56.558;9.036;2023-11-18T06:36:32;102347.44;;;21.03;45.88
81937;BME280;71432;56.558;9.036;2023-11-18T06:38:57;102343.25;;;21.01;45.96
81937;BME280;71432;56.558;9.036;2023-11-18T06:41:24;102338.72;;;21.03;46.11
81937;BME280;71432;56.558;9.036;2023-11-18T06:43:51;102339.53;;;21.03;45.83
81937;BME280;71432;56.558;9.036;2023-11-18T06:46:17;102342.50;;;20.99;46.12
81937;BME280;71432;56.558;9.036;2023-11-18T06:48:48;102344.69;;;21.05;45.82
81937;BME280;71432;56.558;9.036;2023-11-18T06:51:17;102343.75;;;21.06;46.19
81937;BME280;71432;56.558;9.036;2023-11-18T06:53:43;102338.41;;;21.07;46.12
81937;BME280;71432;56.558;9.036;2023-11-18T06:56:10;102330.59;;;21.06;46.21
81937;BME280;71432;56.558;9.036;2023-11-18T06:58:39;102317.44;;;21.06;46.15
81937;BME280;71432;56.558;9.036;2023-11-18T07:01:06;102319.44;;;21.15;45.80
81937;BME280;71432;56.558;9.036;2023-11-18T07:03:31;102328.28;;;21.14;46.00
81937;BME280;71432;56.558;9.036;2023-11-18T07:05:57;102323.75;;;21.16;45.93
81937;BME280;71432;56.558;9.036;2023-11-18T07:08:22;102321.84;;;21.18;45.95
81937;BME280;71432;56.558;9.036;2023-11-18T07:10:47;102328.06;;;21.17;45.85
81937;BME280;71432;56.558;9.036;2023-11-18T07:13:13;102325.84;;;21.11;45.96
81937;BME280;71432;56.558;9.036;2023-11-18T07:15:39;102328.91;;;21.17;46.04
81937;BME280;71432;56.558;9.036;2023-11-18T07:18:04;102332.50;;;21.16;45.72
81937;BME280;71432;56.558;9.036;2023-11-18T07:20:29;102339.34;;;21.19;45.92
81937;BME280;71432;56.558;9.036;2023-11-18T07:22:55;102346.28;;;21.20;45.96
81937;BME280;71432;56.558;9.036;2023-11-18T07:25:20;102339.00;;;21.23;46.11
81937;BME280;71432;56.558;9.036;2023-11-18T07:27:46;102335.63;;;21.21;45.48
81937;BME280;71432;56.558;9.036;2023-11-18T07:30:11;102323.28;;;21.22;45.78
81937;BME280;71432;56.558;9.036;2023-11-18T07:32:37;102329.53;;;21.21;46.13
81937;BME280;71432;56.558;9.036;2023-11-18T07:35:04;102330.47;;;21.20;46.05
81937;BME280;71432;56.558;9.036;2023-11-18T07:37:33;102319.22;;;21.18;46.00
81937;BME280;71432;56.558;9.036;2023-11-18T07:39:59;102314.56;;;21.21;46.04
81937;BME280;71432;56.558;9.036;2023-11-18T07:42:25;102320.66;;;21.22;46.04
81937;BME280;71432;56.558;9.036;2023-11-18T07:44:51;102325.94;;;21.22;46.46
81937;BME280;71432;56.558;9.036;2023-11-18T07:47:16;102322.25;;;21.24;45.98
81937;BME280;71432;56.558;9.036;2023-11-18T07:49:42;102326.56;;;21.25;46.13
81937;BME280;71432;56.558;9.036;2023-11-18T07:52:07;102326.91;;;21.21;45.97
81937;BME280;71432;56.558;9.036;2023-11-18T07:54:32;102320.47;;;21.25;45.83
81937;BME280;71432;56.558;9.036;2023-11-18T07:56:58;102335.19;;;21.27;45.41
81937;BME280;71432;56.558;9.036;2023-11-18T07:59:23;102331.00;;;21.25;45.35
81937;BME280;71432;56.558;9.036;2023-11-18T08:01:49;102313.94;;;21.18;45.41
81937;BME280;71432;56.558;9.036;2023-11-18T08:04:15;102314.88;;;21.29;45.27
81937;BME280;71432;56.558;9.036;2023-11-18T08:06:41;102311.06;;;21.34;45.26
81937;BME280;71432;56.558;9.036;2023-11-18T08:09:08;102316.09;;;21.37;45.33
81937;BME280;71432;56.558;9.036;2023-11-18T08:11:37;102317.53;;;21.41;45.05
81937;BME280;71432;56.558;9.036;2023-11-18T08:14:02;102319.13;;;21.43;44.83
81937;BME280;71432;56.558;9.036;2023-11-18T08:16:28;102325.25;;;21.44;44.96
81937;BME280;71432;56.558;9.036;2023-11-18T08:18:53;102330.50;;;21.44;45.07
81937;BME280;71432;56.558;9.036;2023-11-18T08:21:19;102320.19;;;21.41;45.31
81937;BME280;71432;56.558;9.036;2023-11-18T08:23:44;102317.66;;;21.39;45.27
81937;BME280;71432;56.558;9.036;2023-11-18T08:26:11;102325.09;;;21.45;45.14
81937;BME280;71432;56.558;9.036;2023-11-18T08:28:37;102324.41;;;21.43;45.14
81937;BME280;71432;56.558;9.036;2023-11-18T08:31:02;102327.03;;;21.43;45.41
81937;BME280;71432;56.558;9.036;2023-11-18T08:33:27;102331.31;;;21.44;45.29
81937;BME280;71432;56.558;9.036;2023-11-18T08:35:54;102338.78;;;21.50;45.02
81937;BME280;71432;56.558;9.036;2023-11-18T08:38:19;102341.00;;;21.56;45.09
81937;BME280;71432;56.558;9.036;2023-11-18T08:40:44;102333.19;;;21.55;45.31
81937;BME280;71432;56.558;9.036;2023-11-18T08:43:12;102347.81;;;21.59;45.24
81937;BME280;71432;56.558;9.036;2023-11-18T08:45:37;102341.25;;;21.64;45.22
81937;BME280;71432;56.558;9.036;2023-11-18T08:48:04;102350.44;;;21.59;45.12
81937;BME280;71432;56.558;9.036;2023-11-18T08:50:35;102344.63;;;21.66;45.04
81937;BME280;71432;56.558;9.036;2023-11-18T08:53:01;102344.75;;;21.65;45.29
81937;BME280;71432;56.558;9.036;2023-11-18T08:55:33;102342.81;;;21.67;45.19
81937;BME280;71432;56.558;9.036;2023-11-18T08:58:05;102342.72;;;21.68;45.43
81937;BME280;71432;56.558;9.036;2023-11-18T09:00:44;102335.59;;;21.58;45.59
81937;BME280;71432;56.558;9.036;2023-11-18T09:03:09;102324.25;;;21.68;45.44
81937;BME280;71432;56.558;9.036;2023-11-18T09:05:42;102327.41;;;21.73;45.17
81937;BME280;71432;56.558;9.036;2023-11-18T09:08:08;102310.97;;;21.70;45.11
81937;BME280;71432;56.558;9.036;2023-11-18T09:10:33;102308.00;;;21.74;45.09
81937;BME280;71432;56.558;9.036;2023-11-18T09:12:59;102321.19;;;21.74;45.05
81937;BME280;71432;56.558;9.036;2023-11-18T09:15:24;102318.53;;;21.74;44.85
81937;BME280;71432;56.558;9.036;2023-11-18T09:17:50;102315.91;;;21.74;45.01
81937;BME280;71432;56.558;9.036;2023-11-18T09:20:15;102318.53;;;21.74;45.08
81937;BME280;71432;56.558;9.036;2023-11-18T09:22:48;102314.81;;;21.77;45.24
81937;BME280;71432;56.558;9.036;2023-11-18T09:25:14;102308.09;;;21.73;45.29
81937;BME280;71432;56.558;9.036;2023-11-18T09:27:39;102307.41;;;21.71;45.27
81937;BME280;71432;56.558;9.036;2023-11-18T09:30:05;102294.94;;;21.73;45.52
81937;BME280;71432;56.558;9.036;2023-11-18T09:32:42;102281.75;;;21.73;45.60
81937;BME280;71432;56.558;9.036;2023-11-18T09:35:10;102271.94;;;21.75;45.30
81937;BME280;71432;56.558;9.036;2023-11-18T09:37:40;102287.44;;;21.91;45.32
81937;BME280;71432;56.558;9.036;2023-11-18T09:40:07;102294.97;;;22.41;44.41
81937;BME280;71432;56.558;9.036;2023-11-18T09:42:40;102292.34;;;22.97;42.59
81937;BME280;71432;56.558;9.036;2023-11-18T09:45:08;102294.19;;;23.28;42.08
81937;BME280;71432;56.558;9.036;2023-11-18T09:47:42;102297.16;;;23.46;41.34
81937;BME280;71432;56.558;9.036;2023-11-18T09:50:10;102302.63;;;23.65;41.03
81937;BME280;71432;56.558;9.036;2023-11-18T09:52:42;102291.66;;;23.90;40.67
81937;BME280;71432;56.558;9.036;2023-11-18T09:55:22;102286.16;;;24.03;40.43
81937;BME280;71432;56.558;9.036;2023-11-18T09:57:55;102284.34;;;24.04;40.58
81937;BME280;71432;56.558;9.036;2023-11-18T10:00:23;102285.38;;;24.12;40.54
81937;BME280;71432;56.558;9.036;2023-11-18T10:02:58;102285.47;;;24.22;39.83
81937;BME280;71432;56.558;9.036;2023-11-18T10:05:26;102285.06;;;24.06;40.78
81937;BME280;71432;56.558;9.036;2023-11-18T10:07:52;102283.03;;;24.30;40.20
81937;BME280;71432;56.558;9.036;2023-11-18T10:10:19;102273.38;;;24.59;39.58
81937;BME280;71432;56.558;9.036;2023-11-18T10:12:52;102276.50;;;24.74;39.02
81937;BME280;71432;56.558;9.036;2023-11-18T10:15:21;102269.78;;;25.10;38.02
81937;BME280;71432;56.558;9.036;2023-11-18T10:17:51;102276.16;;;24.58;33.99
81937;BME280;71432;56.558;9.036;2023-11-18T10:20:48;102271.19;;;24.34;32.11
81937;BME280;71432;56.558;9.036;2023-11-18T10:23:17;102261.69;;;24.62;34.27
81937;BME280;71432;56.558;9.036;2023-11-18T10:25:50;102261.41;;;24.65;35.43
81937;BME280;71432;56.558;9.036;2023-11-18T10:28:31;102260.66;;;24.44;36.44
81937;BME280;71432;56.558;9.036;2023-11-18T10:31:07;102262.63;;;24.51;36.62
81937;BME280;71432;56.558;9.036;2023-11-18T10:33:36;102262.91;;;24.48;37.03
81937;BME280;71432;56.558;9.036;2023-11-18T10:36:03;102252.22;;;24.69;36.62
81937;BME280;71432;56.558;9.036;2023-11-18T10:38:30;102250.69;;;24.66;36.92
81937;BME280;71432;56.558;9.036;2023-11-18T10:40:58;102244.81;;;25.03;36.38
81937;BME280;71432;56.558;9.036;2023-11-18T10:43:24;102257.06;;;25.04;36.49
81937;BME280;71432;56.558;9.036;2023-11-18T10:45:51;102251.63;;;25.05;36.20
81937;BME280;71432;56.558;9.036;2023-11-18T10:48:18;102255.00;;;25.07;36.69
81937;BME280;71432;56.558;9.036;2023-11-18T10:50:49;102246.88;;;25.09;36.64
81937;BME280;71432;56.558;9.036;2023-11-18T10:53:16;102244.38;;;25.17;36.84
81937;BME280;71432;56.558;9.036;2023-11-18T10:55:42;102232.56;;;25.21;36.86
81937;BME280;71432;56.558;9.036;2023-11-18T10:58:09;102237.69;;;25.42;36.34
81937;BME280;71432;56.558;9.036;2023-11-18T11:00:48;102229.75;;;25.61;35.92
81937;BME280;71432;56.558;9.036;2023-11-18T11:03:15;102224.84;;;25.76;35.94
81937;BME280;71432;56.558;9.036;2023-11-18T11:05:40;102230.84;;;25.78;35.86
81937;BME280;71432;56.558;9.036;2023-11-18T11:08:08;102221.22;;;25.67;35.97
81937;BME280;71432;56.558;9.036;2023-11-18T11:10:33;102206.53;;;25.82;35.55
81937;BME280;71432;56.558;9.036;2023-11-18T11:13:01;102208.13;;;25.65;35.81
81937;BME280;71432;56.558;9.036;2023-11-18T11:15:31;102201.13;;;25.36;36.57
81937;BME280;71432;56.558;9.036;2023-11-18T11:18:05;102188.59;;;25.18;36.76
81937;BME280;71432;56.558;9.036;2023-11-18T11:20:39;102196.91;;;25.81;36.15
81937;BME280;71432;56.558;9.036;2023-11-18T11:23:47;102190.75;;;25.81;35.98
81937;BME280;71432;56.558;9.036;2023-11-18T11:26:35;102197.31;;;25.86;35.48
81937;BME280;71432;56.558;9.036;2023-11-18T11:29:24;102189.13;;;25.51;36.63
81937;BME280;71432;56.558;9.036;2023-11-18T11:32:12;102190.81;;;25.23;36.87
81937;BME280;71432;56.558;9.036;2023-11-18T11:34:52;102190.94;;;25.60;36.45
81937;BME280;71432;56.558;9.036;2023-11-18T11:37:19;102177.84;;;25.39;36.62
81937;BME280;71432;56.558;9.036;2023-11-18T11:39:45;102177.16;;;24.99;37.68
81937;BME280;71432;56.558;9.036;2023-11-18T11:42:15;102167.66;;;24.87;37.83
81937;BME280;71432;56.558;9.036;2023-11-18T11:44:43;102154.44;;;25.15;37.67
81937;BME280;71432;56.558;9.036;2023-11-18T11:47:09;102147.69;;;25.59;36.49
81937;BME280;71432;56.558;9.036;2023-11-18T11:50:03;102139.78;;;25.87;35.86
81937;BME280;71432;56.558;9.036;2023-11-18T11:52:36;102139.63;;;25.03;37.34
81937;BME280;71432;56.558;9.036;2023-11-18T11:55:12;102133.22;;;24.87;37.98
81937;BME280;71432;56.558;9.036;2023-11-18T11:57:40;102117.44;;;24.85;38.00
81937;BME280;71432;56.558;9.036;2023-11-18T12:00:11;102118.59;;;25.21;37.54
81937;BME280;71432;56.558;9.036;2023-11-18T12:02:49;102119.88;;;26.00;36.53
81937;BME280;71432;56.558;9.036;2023-11-18T12:05:17;102112.38;;;25.96;35.95
81937;BME280;71432;56.558;9.036;2023-11-18T12:07:45;102108.91;;;26.13;35.69
81937;BME280;71432;56.558;9.036;2023-11-18T12:10:12;102110.97;;;26.29;35.75
81937;BME280;71432;56.558;9.036;2023-11-18T12:12:45;102105.81;;;26.18;35.88
81937;BME280;71432;56.558;9.036;2023-11-18T12:15:10;102099.06;;;26.33;35.33
81937;BME280;71432;56.558;9.036;2023-11-18T12:20:41;102098.94;;;26.52;35.33
81937;BME280;71432;56.558;9.036;2023-11-18T12:23:08;102106.94;;;26.25;35.82
81937;BME280;71432;56.558;9.036;2023-11-18T12:25:40;102115.44;;;26.28;35.54
81937;BME280;71432;56.558;9.036;2023-11-18T12:28:16;102122.72;;;26.44;35.22
81937;BME280;71432;56.558;9.036;2023-11-18T12:30:43;102116.09;;;24.22;39.92
81937;BME280;71432;56.558;9.036;2023-11-18T12:33:18;102109.06;;;23.71;41.24
81937;BME280;71432;56.558;9.036;2023-11-18T12:41:03;102099.16;;;23.22;40.02
81937;BME280;71432;56.558;9.036;2023-11-18T12:43:49;102099.09;;;23.33;40.36
81937;BME280;71432;56.558;9.036;2023-11-18T12:48:45;102098.94;;;23.35;40.53
81937;BME280;71432;56.558;9.036;2023-11-18T12:51:15;102095.81;;;23.20;40.93
81937;BME280;71432;56.558;9.036;2023-11-18T12:53:48;102092.41;;;23.29;40.96
81937;BME280;71432;56.558;9.036;2023-11-18T12:56:17;102092.53;;;23.28;40.61
81937;BME280;71432;56.558;9.036;2023-11-18T12:58:45;102081.13;;;23.27;40.83
81937;BME280;71432;56.558;9.036;2023-11-18T13:01:11;102083.91;;;23.26;40.87
81937;BME280;71432;56.558;9.036;2023-11-18T13:03:42;102083.06;;;23.25;40.59
81937;BME280;71432;56.558;9.036;2023-11-18T13:06:11;102073.34;;;23.26;40.94